sensor_id;sensor_type;location;lat;lon;timestamp;P1;durP1;ratioP1;P2;durP2;ratioP2
52404;SDS011;38330;53.066;7.080;2022-09-13T00:01:41;13.30;;;7.15;;
52404;SDS011;38330;53.066;7.080;2022-09-13T00:04:07;14.90;;;7.53;;
52404;SDS011;38330;53.066;7.080;2022-09-13T00:06:33;15.80;;;7.80;;
52404;SDS011;38330;53.066;7.080;2022-09-13T00:08:59;14.60;;;8.20;;
52404;SDS011;38330;53.066;7.080;2022-09-13T00:11:26;15.98;;;8.77;;
52404;SDS011;38330;53.066;7.080;2022-09-13T00:13:54;13.05;;;7.20;;
52404;SDS011;38330;53.066;7.080;2022-09-13T00:16:21;16.65;;;7.88;;
52404;SDS011;38330;53.066;7.080;2022-09-13T00:18:49;15.60;;;8.05;;
52404;SDS011;38330;53.066;7.080;2022-09-13T00:21:16;15.48;;;7.50;;
52404;SDS011;38330;53.066;7.080;2022-09-13T00:23:44;15.73;;;8.27;;
52404;SDS011;38330;53.066;7.080;2022-09-13T00:26:12;16.48;;;8.95;;
52404;SDS011;38330;53.066;7.080;2022-09-13T00:28:40;13.77;;;7.05;;
52404;SDS011;38330;53.066;7.080;2022-09-13T00:31:07;16.02;;;8.88;;
52404;SDS011;38330;53.066;7.080;2022-09-13T00:33:33;16.98;;;8.18;;
52404;SDS011;38330;53.066;7.080;2022-09-13T00:36:03;15.95;;;8.98;;
52404;SDS011;38330;53.066;7.080;2022-09-13T00:38:30;17.02;;;8.98;;
52404;SDS011;38330;53.066;7.080;2022-09-13T00:40:56;14.27;;;7.60;;
52404;SDS011;38330;53.066;7.080;2022-09-13T00:43:39;14.18;;;7.05;;
52404;SDS011;38330;53.066;7.080;2022-09-13T00:46:18;11.77;;;6.47;;
52404;SDS011;38330;53.066;7.080;2022-09-13T00:48:47;11.77;;;6.43;;
52404;SDS011;38330;53.066;7.080;2022-09-13T00:51:17;11.93;;;6.18;;
52404;SDS011;38330;53.066;7.080;2022-09-13T00:53:43;11.25;;;5.88;;
52404;SDS011;38330;53.066;7.080;2022-09-13T00:56:17;11.52;;;5.22;;
52404;SDS011;38330;53.066;7.080;2022-09-13T00:58:58;11.82;;;5.82;;
52404;SDS011;38330;53.066;7.080;2022-09-13T01:01:31;11.82;;;6.13;;
52404;SDS011;38330;53.066;7.080;2022-09-13T01:04:01;12.15;;;6.57;;
52404;SDS011;38330;53.066;7.080;2022-09-13T01:06:27;13.70;;;6.63;;
52404;SDS011;38330;53.066;7.080;2022-09-13T01:08:57;15.68;;;7.53;;
52404;SDS011;38330;53.066;7.080;2022-09-13T01:12:02;12.50;;;6.18;;
52404;SDS011;38330;53.066;7.080;2022-09-13T01:14:28;12.70;;;6.78;;
52404;SDS011;38330;53.066;7.080;2022-09-13T01:16:55;12.73;;;6.55;;
52404;SDS011;38330;53.066;7.080;2022-09-13T01:19:20;13.07;;;6.55;;
52404;SDS011;38330;53.066;7.080;2022-09-13T01:41:08;11.80;;;5.95;;
52404;SDS011;38330;53.066;7.080;2022-09-13T01:43:55;13.82;;;6.22;;
52404;SDS011;38330;53.066;7.080;2022-09-13T01:46:34;11.57;;;6.25;;
52404;SDS011;38330;53.066;7.080;2022-09-13T01:52:03;10.13;;;4.72;;
52404;SDS011;38330;53.066;7.080;2022-09-13T01:57:40;10.57;;;4.50;;
52404;SDS011;38330;53.066;7.080;2022-09-13T02:00:16;8.57;;;4.18;;
52404;SDS011;38330;53.066;7.080;2022-09-13T02:03:03;9.65;;;4.03;;
52404;SDS011;38330;53.066;7.080;2022-09-13T02:05:41;8.50;;;3.95;;
52404;SDS011;38330;53.066;7.080;2022-09-13T02:08:23;10.60;;;4.35;;
52404;SDS011;38330;53.066;7.080;2022-09-13T02:10:59;10.07;;;4.47;;
52404;SDS011;38330;53.066;7.080;2022-09-13T02:13:35;11.10;;;4.40;;
52404;SDS011;38330;53.066;7.080;2022-09-13T02:16:07;12.88;;;4.47;;
52404;SDS011;38330;53.066;7.080;2022-09-13T02:18:40;11.02;;;4.45;;
52404;SDS011;38330;53.066;7.080;2022-09-13T02:21:19;9.77;;;4.35;;
52404;SDS011;38330;53.066;7.080;2022-09-13T02:23:50;9.45;;;4.57;;
52404;SDS011;38330;53.066;7.080;2022-09-13T02:26:25;9.75;;;4.32;;
52404;SDS011;38330;53.066;7.080;2022-09-13T02:28:53;9.50;;;5.20;;
52404;SDS011;38330;53.066;7.080;2022-09-13T02:31:23;12.27;;;5.03;;
52404;SDS011;38330;53.066;7.080;2022-09-13T02:34:02;12.88;;;5.53;;
52404;SDS011;38330;53.066;7.080;2022-09-13T02:36:33;9.90;;;5.03;;
52404;SDS011;38330;53.066;7.080;2022-09-13T02:39:06;11.52;;;5.10;;
52404;SDS011;38330;53.066;7.080;2022-09-13T02:44:44;9.80;;;5.00;;
52404;SDS011;38330;53.066;7.080;2022-09-13T02:55:29;11.65;;;5.93;;
52404;SDS011;38330;53.066;7.080;2022-09-13T02:58:03;11.40;;;6.00;;
52404;SDS011;38330;53.066;7.080;2022-09-13T03:00:41;13.23;;;6.35;;
52404;SDS011;38330;53.066;7.080;2022-09-13T03:03:10;12.10;;;6.40;;
52404;SDS011;38330;53.066;7.080;2022-09-13T03:05:38;12.98;;;6.63;;
52404;SDS011;38330;53.066;7.080;2022-09-13T03:08:04;11.73;;;5.80;;
52404;SDS011;38330;53.066;7.080;2022-09-13T03:11:09;12.60;;;6.72;;
52404;SDS011;38330;53.066;7.080;2022-09-13T03:28:16;16.55;;;8.43;;
52404;SDS011;38330;53.066;7.080;2022-09-13T03:31:12;16.65;;;7.45;;
52404;SDS011;38330;53.066;7.080;2022-09-13T03:33:46;15.75;;;7.78;;
52404;SDS011;38330;53.066;7.080;2022-09-13T03:36:24;16.45;;;8.60;;
52404;SDS011;38330;53.066;7.080;2022-09-13T03:41:41;17.10;;;9.13;;
52404;SDS011;38330;53.066;7.080;2022-09-13T03:46:41;16.85;;;8.77;;
52404;SDS011;38330;53.066;7.080;2022-09-13T03:49:14;20.02;;;9.10;;
52404;SDS011;38330;53.066;7.080;2022-09-13T03:51:46;18.50;;;9.25;;
52404;SDS011;38330;53.066;7.080;2022-09-13T03:54:18;19.50;;;9.82;;
52404;SDS011;38330;53.066;7.080;2022-09-13T03:59:43;20.58;;;10.85;;
52404;SDS011;38330;53.066;7.080;2022-09-13T04:02:11;20.23;;;10.38;;
52404;SDS011;38330;53.066;7.080;2022-09-13T04:04:38;19.60;;;10.65;;
52404;SDS011;38330;53.066;7.080;2022-09-13T04:07:05;20.42;;;11.10;;
52404;SDS011;38330;53.066;7.080;2022-09-13T04:09:31;22.10;;;11.60;;
52404;SDS011;38330;53.066;7.080;2022-09-13T04:11:57;17.58;;;10.07;;
52404;SDS011;38330;53.066;7.080;2022-09-13T04:14:22;24.52;;;11.55;;
52404;SDS011;38330;53.066;7.080;2022-09-13T04:16:51;23.20;;;12.18;;
52404;SDS011;38330;53.066;7.080;2022-09-13T04:19:17;20.80;;;11.73;;
52404;SDS011;38330;53.066;7.080;2022-09-13T04:21:43;25.58;;;12.27;;
52404;SDS011;38330;53.066;7.080;2022-09-13T04:24:11;22.35;;;11.60;;
52404;SDS011;38330;53.066;7.080;2022-09-13T04:26:37;23.15;;;11.45;;
52404;SDS011;38330;53.066;7.080;2022-09-13T04:29:03;20.45;;;11.45;;
52404;SDS011;38330;53.066;7.080;2022-09-13T04:31:28;19.67;;;10.35;;
52404;SDS011;38330;53.066;7.080;2022-09-13T04:33:54;19.50;;;10.07;;
52404;SDS011;38330;53.066;7.080;2022-09-13T04:36:19;19.77;;;9.90;;
52404;SDS011;38330;53.066;7.080;2022-09-13T04:38:45;19.05;;;10.65;;
52404;SDS011;38330;53.066;7.080;2022-09-13T04:41:11;20.33;;;10.10;;
52404;SDS011;38330;53.066;7.080;2022-09-13T04:43:37;19.95;;;10.68;;
52404;SDS011;38330;53.066;7.080;2022-09-13T04:46:03;19.33;;;9.80;;
52404;SDS011;38330;53.066;7.080;2022-09-13T04:48:29;22.08;;;10.43;;
52404;SDS011;38330;53.066;7.080;2022-09-13T04:50:59;18.75;;;10.50;;
52404;SDS011;38330;53.066;7.080;2022-09-13T04:53:29;19.02;;;9.00;;
52404;SDS011;38330;53.066;7.080;2022-09-13T04:56:04;18.67;;;9.73;;
52404;SDS011;38330;53.066;7.080;2022-09-13T04:58:30;19.13;;;9.05;;
52404;SDS011;38330;53.066;7.080;2022-09-13T05:01:03;13.80;;;6.93;;
52404;SDS011;38330;53.066;7.080;2022-09-13T05:03:31;12.07;;;6.00;;
52404;SDS011;38330;53.066;7.080;2022-09-13T05:06:04;12.13;;;5.78;;
52404;SDS011;38330;53.066;7.080;2022-09-13T05:08:30;11.52;;;5.25;;
52404;SDS011;38330;53.066;7.080;2022-09-13T05:10:56;12.50;;;5.10;;
52404;SDS011;38330;53.066;7.080;2022-09-13T05:13:23;14.63;;;5.50;;
52404;SDS011;38330;53.066;7.080;2022-09-13T05:15:59;11.48;;;5.47;;
52404;SDS011;38330;53.066;7.080;2022-09-13T05:18:30;12.38;;;6.05;;
52404;SDS011;38330;53.066;7.080;2022-09-13T05:20:58;14.30;;;6.82;;
52404;SDS011;38330;53.066;7.080;2022-09-13T05:23:26;14.40;;;7.13;;
52404;SDS011;38330;53.066;7.080;2022-09-13T05:25:56;13.95;;;6.82;;
52404;SDS011;38330;53.066;7.080;2022-09-13T05:28:28;15.30;;;7.95;;
52404;SDS011;38330;53.066;7.080;2022-09-13T05:30:55;15.15;;;8.60;;
52404;SDS011;38330;53.066;7.080;2022-09-13T05:33:23;16.15;;;7.93;;
52404;SDS011;38330;53.066;7.080;2022-09-13T05:35:53;15.77;;;7.53;;
52404;SDS011;38330;53.066;7.080;2022-09-13T05:38:19;15.40;;;7.63;;
52404;SDS011;38330;53.066;7.080;2022-09-13T05:40:45;15.43;;;7.38;;
52404;SDS011;38330;53.066;7.080;2022-09-13T05:43:11;16.63;;;8.25;;
52404;SDS011;38330;53.066;7.080;2022-09-13T05:45:37;16.23;;;8.45;;
52404;SDS011;38330;53.066;7.080;2022-09-13T05:48:03;16.13;;;7.50;;
52404;SDS011;38330;53.066;7.080;2022-09-13T05:50:29;13.25;;;7.18;;
52404;SDS011;38330;53.066;7.080;2022-09-13T05:52:54;13.40;;;6.70;;
52404;SDS011;38330;53.066;7.080;2022-09-13T05:55:21;13.20;;;7.03;;
52404;SDS011;38330;53.066;7.080;2022-09-13T05:57:47;13.80;;;6.72;;
52404;SDS011;38330;53.066;7.080;2022-09-13T06:00:14;15.32;;;7.63;;
52404;SDS011;38330;53.066;7.080;2022-09-13T06:02:40;13.25;;;6.57;;
52404;SDS011;38330;53.066;7.080;2022-09-13T06:05:09;13.77;;;6.40;;
52404;SDS011;38330;53.066;7.080;2022-09-13T06:07:38;13.93;;;6.63;;
52404;SDS011;38330;53.066;7.080;2022-09-13T06:10:05;14.18;;;5.95;;
52404;SDS011;38330;53.066;7.080;2022-09-13T06:12:32;14.27;;;6.05;;
52404;SDS011;38330;53.066;7.080;2022-09-13T06:14:57;11.75;;;5.35;;
52404;SDS011;38330;53.066;7.080;2022-09-13T06:17:23;11.45;;;5.38;;
52404;SDS011;38330;53.066;7.080;2022-09-13T06:19:49;12.48;;;5.22;;
52404;SDS011;38330;53.066;7.080;2022-09-13T06:22:15;10.50;;;4.65;;
52404;SDS011;38330;53.066;7.080;2022-09-13T06:24:41;9.40;;;4.53;;
52404;SDS011;38330;53.066;7.080;2022-09-13T06:27:06;8.48;;;3.67;;
52404;SDS011;38330;53.066;7.080;2022-09-13T06:29:34;10.65;;;3.97;;
52404;SDS011;38330;53.066;7.080;2022-09-13T06:32:00;9.43;;;3.35;;
52404;SDS011;38330;53.066;7.080;2022-09-13T06:34:26;8.35;;;2.95;;
52404;SDS011;38330;53.066;7.080;2022-09-13T06:36:52;9.13;;;3.03;;
52404;SDS011;38330;53.066;7.080;2022-09-13T06:39:18;6.95;;;2.60;;
52404;SDS011;38330;53.066;7.080;2022-09-13T06:41:43;8.10;;;2.42;;
52404;SDS011;38330;53.066;7.080;2022-09-13T06:44:09;10.57;;;2.83;;
52404;SDS011;38330;53.066;7.080;2022-09-13T06:46:34;9.05;;;2.40;;
52404;SDS011;38330;53.066;7.080;2022-09-13T06:49:01;7.13;;;2.20;;
52404;SDS011;38330;53.066;7.080;2022-09-13T06:51:28;7.15;;;1.85;;
52404;SDS011;38330;53.066;7.080;2022-09-13T06:53:55;4.75;;;1.80;;
52404;SDS011;38330;53.066;7.080;2022-09-13T06:56:22;9.52;;;1.95;;
52404;SDS011;38330;53.066;7.080;2022-09-13T06:58:54;6.43;;;1.90;;
52404;SDS011;38330;53.066;7.080;2022-09-13T07:01:35;6.15;;;2.00;;
52404;SDS011;38330;53.066;7.080;2022-09-13T07:04:06;9.80;;;1.90;;
52404;SDS011;38330;53.066;7.080;2022-09-13T07:06:37;5.85;;;2.10;;
52404;SDS011;38330;53.066;7.080;2022-09-13T07:09:06;5.75;;;1.80;;
52404;SDS011;38330;53.066;7.080;2022-09-13T07:11:35;4.75;;;1.80;;
52404;SDS011;38330;53.066;7.080;2022-09-13T07:14:02;8.07;;;2.05;;
52404;SDS011;38330;53.066;7.080;2022-09-13T07:16:29;8.50;;;2.15;;
52404;SDS011;38330;53.066;7.080;2022-09-13T07:19:00;9.43;;;2.40;;
52404;SDS011;38330;53.066;7.080;2022-09-13T07:21:29;6.72;;;1.83;;
52404;SDS011;38330;53.066;7.080;2022-09-13T07:23:55;5.32;;;1.60;;
52404;SDS011;38330;53.066;7.080;2022-09-13T07:26:22;7.43;;;1.80;;
52404;SDS011;38330;53.066;7.080;2022-09-13T07:28:49;9.15;;;2.33;;
52404;SDS011;38330;53.066;7.080;2022-09-13T07:33:53;8.73;;;2.10;;
52404;SDS011;38330;53.066;7.080;2022-09-13T07:36:21;7.43;;;2.00;;
52404;SDS011;38330;53.066;7.080;2022-09-13T07:38:48;5.70;;;1.70;;
52404;SDS011;38330;53.066;7.080;2022-09-13T07:41:17;6.28;;;1.73;;
52404;SDS011;38330;53.066;7.080;2022-09-13T07:43:44;7.20;;;2.90;;
52404;SDS011;38330;53.066;7.080;2022-09-13T07:46:16;6.75;;;2.10;;
52404;SDS011;38330;53.066;7.080;2022-09-13T07:48:44;5.75;;;1.50;;
52404;SDS011;38330;53.066;7.080;2022-09-13T07:51:11;6.53;;;1.70;;
52404;SDS011;38330;53.066;7.080;2022-09-13T07:53:43;7.00;;;1.50;;
52404;SDS011;38330;53.066;7.080;2022-09-13T07:56:20;5.65;;;1.30;;
52404;SDS011;38330;53.066;7.080;2022-09-13T07:58:47;4.78;;;1.48;;
52404;SDS011;38330;53.066;7.080;2022-09-13T08:01:15;8.05;;;1.73;;
52404;SDS011;38330;53.066;7.080;2022-09-13T08:06:19;5.07;;;1.40;;
52404;SDS011;38330;53.066;7.080;2022-09-13T08:12:01;4.07;;;1.08;;
52404;SDS011;38330;53.066;7.080;2022-09-13T08:14:27;4.93;;;1.25;;
52404;SDS011;38330;53.066;7.080;2022-09-13T08:16:55;6.00;;;1.13;;
52404;SDS011;38330;53.066;7.080;2022-09-13T08:19:21;7.05;;;1.40;;
52404;SDS011;38330;53.066;7.080;2022-09-13T08:21:47;6.95;;;1.40;;
52404;SDS011;38330;53.066;7.080;2022-09-13T08:24:22;8.35;;;1.67;;
52404;SDS011;38330;53.066;7.080;2022-09-13T08:27:03;3.38;;;1.08;;
52404;SDS011;38330;53.066;7.080;2022-09-13T08:29:28;6.65;;;1.00;;
52404;SDS011;38330;53.066;7.080;2022-09-13T08:31:54;5.15;;;1.20;;
52404;SDS011;38330;53.066;7.080;2022-09-13T08:34:20;5.93;;;1.50;;
52404;SDS011;38330;53.066;7.080;2022-09-13T08:36:46;4.88;;;1.00;;
52404;SDS011;38330;53.066;7.080;2022-09-13T08:39:11;7.95;;;1.40;;
52404;SDS011;38330;53.066;7.080;2022-09-13T08:46:55;2.13;;;0.68;;
52404;SDS011;38330;53.066;7.080;2022-09-13T08:49:33;5.85;;;0.82;;
52404;SDS011;38330;53.066;7.080;2022-09-13T08:52:50;6.47;;;1.10;;
52404;SDS011;38330;53.066;7.080;2022-09-13T08:58:25;4.32;;;0.77;;
52404;SDS011;38330;53.066;7.080;2022-09-13T09:03:57;5.22;;;1.00;;
52404;SDS011;38330;53.066;7.080;2022-09-13T09:06:26;3.80;;;1.23;;
52404;SDS011;38330;53.066;7.080;2022-09-13T09:09:01;4.05;;;0.85;;
52404;SDS011;38330;53.066;7.080;2022-09-13T09:11:41;3.83;;;1.20;;
52404;SDS011;38330;53.066;7.080;2022-09-13T09:14:26;6.40;;;1.05;;
52404;SDS011;38330;53.066;7.080;2022-09-13T09:16:57;4.07;;;0.98;;
52404;SDS011;38330;53.066;7.080;2022-09-13T09:19:32;6.40;;;1.20;;
52404;SDS011;38330;53.066;7.080;2022-09-13T09:22:18;8.85;;;1.13;;
52404;SDS011;38330;53.066;7.080;2022-09-13T09:24:54;4.90;;;0.93;;
52404;SDS011;38330;53.066;7.080;2022-09-13T09:27:21;3.83;;;0.90;;
52404;SDS011;38330;53.066;7.080;2022-09-13T09:29:48;5.05;;;1.20;;
52404;SDS011;38330;53.066;7.080;2022-09-13T09:40:55;4.82;;;1.02;;
52404;SDS011;38330;53.066;7.080;2022-09-13T09:43:41;3.88;;;0.85;;
52404;SDS011;38330;53.066;7.080;2022-09-13T09:46:24;4.10;;;0.88;;
52404;SDS011;38330;53.066;7.080;2022-09-13T09:49:03;3.38;;;1.05;;
52404;SDS011;38330;53.066;7.080;2022-09-13T09:51:57;3.90;;;1.02;;
52404;SDS011;38330;53.066;7.080;2022-09-13T09:54:26;4.65;;;0.93;;
52404;SDS011;38330;53.066;7.080;2022-09-13T09:56:55;4.18;;;0.90;;
52404;SDS011;38330;53.066;7.080;2022-09-13T09:59:24;8.82;;;0.90;;
52404;SDS011;38330;53.066;7.080;2022-09-13T10:01:56;7.05;;;0.88;;
52404;SDS011;38330;53.066;7.080;2022-09-13T10:04:28;3.78;;;0.80;;
52404;SDS011;38330;53.066;7.080;2022-09-13T10:07:08;2.75;;;0.65;;
52404;SDS011;38330;53.066;7.080;2022-09-13T10:09:57;1.00;;;0.55;;
52404;SDS011;38330;53.066;7.080;2022-09-13T10:12:50;7.50;;;1.00;;
52404;SDS011;38330;53.066;7.080;2022-09-13T10:15:21;6.28;;;0.80;;
52404;SDS011;38330;53.066;7.080;2022-09-13T10:20:42;5.10;;;0.95;;
52404;SDS011;38330;53.066;7.080;2022-09-13T10:23:24;4.20;;;0.90;;
52404;SDS011;38330;53.066;7.080;2022-09-13T10:26:08;5.07;;;0.95;;
52404;SDS011;38330;53.066;7.080;2022-09-13T10:29:00;3.33;;;0.80;;
52404;SDS011;38330;53.066;7.080;2022-09-13T10:31:44;3.72;;;0.63;;
52404;SDS011;38330;53.066;7.080;2022-09-13T10:37:04;3.65;;;1.00;;
52404;SDS011;38330;53.066;7.080;2022-09-13T10:39:47;3.97;;;0.77;;
52404;SDS011;38330;53.066;7.080;2022-09-13T10:42:28;3.58;;;0.80;;
52404;SDS011;38330;53.066;7.080;2022-09-13T10:47:30;4.60;;;0.75;;
52404;SDS011;38330;53.066;7.080;2022-09-13T10:50:21;4.63;;;0.85;;
52404;SDS011;38330;53.066;7.080;2022-09-13T10:52:48;5.70;;;0.80;;
52404;SDS011;38330;53.066;7.080;2022-09-13T10:57:42;7.68;;;0.88;;
52404;SDS011;38330;53.066;7.080;2022-09-13T11:00:10;4.35;;;0.90;;
52404;SDS011;38330;53.066;7.080;2022-09-13T11:08:35;2.33;;;0.75;;
52404;SDS011;38330;53.066;7.080;2022-09-13T11:16:36;4.55;;;0.88;;
52404;SDS011;38330;53.066;7.080;2022-09-13T11:25:05;7.13;;;0.95;;
52404;SDS011;38330;53.066;7.080;2022-09-13T11:30:20;4.80;;;1.15;;
52404;SDS011;38330;53.066;7.080;2022-09-13T11:43:37;5.63;;;0.88;;
52404;SDS011;38330;53.066;7.080;2022-09-13T11:46:32;4.22;;;0.73;;
52404;SDS011;38330;53.066;7.080;2022-09-13T11:49:19;5.20;;;0.80;;
52404;SDS011;38330;53.066;7.080;2022-09-13T11:52:02;3.75;;;0.80;;
52404;SDS011;38330;53.066;7.080;2022-09-13T11:55:10;5.78;;;0.95;;
52404;SDS011;38330;53.066;7.080;2022-09-13T11:57:50;3.90;;;0.75;;
52404;SDS011;38330;53.066;7.080;2022-09-13T12:00:22;3.55;;;0.85;;
52404;SDS011;38330;53.066;7.080;2022-09-13T12:05:53;2.22;;;0.63;;
52404;SDS011;38330;53.066;7.080;2022-09-13T12:08:25;2.65;;;0.60;;
52404;SDS011;38330;53.066;7.080;2022-09-13T12:10:52;3.15;;;0.68;;
52404;SDS011;38330;53.066;7.080;2022-09-13T12:13:21;2.05;;;0.63;;
52404;SDS011;38330;53.066;7.080;2022-09-13T12:15:51;5.20;;;0.95;;
52404;SDS011;38330;53.066;7.080;2022-09-13T12:18:37;3.20;;;0.70;;
52404;SDS011;38330;53.066;7.080;2022-09-13T12:21:11;3.53;;;0.60;;
52404;SDS011;38330;53.066;7.080;2022-09-13T12:26:29;4.43;;;1.25;;
52404;SDS011;38330;53.066;7.080;2022-09-13T12:29:06;4.18;;;0.70;;
52404;SDS011;38330;53.066;7.080;2022-09-13T12:31:36;2.58;;;0.60;;
52404;SDS011;38330;53.066;7.080;2022-09-13T12:34:04;4.45;;;0.80;;
52404;SDS011;38330;53.066;7.080;2022-09-13T12:36:51;3.67;;;0.85;;
52404;SDS011;38330;53.066;7.080;2022-09-13T12:39:39;4.25;;;0.70;;
52404;SDS011;38330;53.066;7.080;2022-09-13T13:01:45;2.83;;;0.55;;
52404;SDS011;38330;53.066;7.080;2022-09-13T13:06:53;4.93;;;0.80;;
52404;SDS011;38330;53.066;7.080;2022-09-13T13:09:38;2.97;;;0.60;;
52404;SDS011;38330;53.066;7.080;2022-09-13T13:15:52;5.55;;;1.10;;
52404;SDS011;38330;53.066;7.080;2022-09-13T13:19:00;5.43;;;0.80;;
52404;SDS011;38330;53.066;7.080;2022-09-13T13:21:22;3.80;;;0.70;;
52404;SDS011;38330;53.066;7.080;2022-09-13T13:27:19;4.18;;;0.73;;
52404;SDS011;38330;53.066;7.080;2022-09-13T13:31:02;3.80;;;0.80;;
52404;SDS011;38330;53.066;7.080;2022-09-13T13:33:21;4.45;;;1.10;;
52404;SDS011;38330;53.066;7.080;2022-09-13T13:35:50;3.65;;;0.82;;
52404;SDS011;38330;53.066;7.080;2022-09-13T13:38:30;6.30;;;1.08;;
52404;SDS011;38330;53.066;7.080;2022-09-13T13:46:40;5.25;;;1.10;;
52404;SDS011;38330;53.066;7.080;2022-09-13T13:57:39;3.72;;;0.90;;
52404;SDS011;38330;53.066;7.080;2022-09-13T14:00:28;5.43;;;0.98;;
52404;SDS011;38330;53.066;7.080;2022-09-13T14:05:32;3.35;;;0.93;;
52404;SDS011;38330;53.066;7.080;2022-09-13T14:16:55;3.97;;;0.90;;
52404;SDS011;38330;53.066;7.080;2022-09-13T14:19:43;6.40;;;0.90;;
52404;SDS011;38330;53.066;7.080;2022-09-13T14:22:18;7.22;;;0.90;;
52404;SDS011;38330;53.066;7.080;2022-09-13T14:24:48;4.90;;;0.85;;
52404;SDS011;38330;53.066;7.080;2022-09-13T14:27:29;4.18;;;0.95;;
52404;SDS011;38330;53.066;7.080;2022-09-13T14:30:04;5.18;;;0.90;;
52404;SDS011;38330;53.066;7.080;2022-09-13T14:32:43;4.20;;;0.82;;
52404;SDS011;38330;53.066;7.080;2022-09-13T14:40:48;5.88;;;1.08;;
52404;SDS011;38330;53.066;7.080;2022-09-13T14:43:17;6.50;;;1.23;;
52404;SDS011;38330;53.066;7.080;2022-09-13T14:45:49;4.38;;;0.60;;
52404;SDS011;38330;53.066;7.080;2022-09-13T14:51:15;7.85;;;1.15;;
52404;SDS011;38330;53.066;7.080;2022-09-13T14:53:46;7.38;;;0.75;;
52404;SDS011;38330;53.066;7.080;2022-09-13T14:56:16;5.90;;;1.05;;
52404;SDS011;38330;53.066;7.080;2022-09-13T14:59:13;7.78;;;1.20;;
52404;SDS011;38330;53.066;7.080;2022-09-13T15:01:43;5.43;;;0.73;;
52404;SDS011;38330;53.066;7.080;2022-09-13T15:04:09;4.32;;;1.02;;
52404;SDS011;38330;53.066;7.080;2022-09-13T15:06:36;3.05;;;0.80;;
52404;SDS011;38330;53.066;7.080;2022-09-13T15:11:36;4.72;;;0.70;;
52404;SDS011;38330;53.066;7.080;2022-09-13T15:17:13;5.20;;;0.93;;
52404;SDS011;38330;53.066;7.080;2022-09-13T15:19:39;5.70;;;0.90;;
52404;SDS011;38330;53.066;7.080;2022-09-13T15:22:15;5.15;;;0.85;;
52404;SDS011;38330;53.066;7.080;2022-09-13T15:24:45;6.18;;;0.98;;
52404;SDS011;38330;53.066;7.080;2022-09-13T15:27:18;10.88;;;1.00;;
52404;SDS011;38330;53.066;7.080;2022-09-13T15:29:47;4.07;;;0.90;;
52404;SDS011;38330;53.066;7.080;2022-09-13T15:32:32;4.47;;;0.80;;
52404;SDS011;38330;53.066;7.080;2022-09-13T15:35:15;4.05;;;0.70;;
52404;SDS011;38330;53.066;7.080;2022-09-13T15:37:41;4.97;;;1.45;;
52404;SDS011;38330;53.066;7.080;2022-09-13T15:40:10;3.97;;;0.73;;
52404;SDS011;38330;53.066;7.080;2022-09-13T15:42:45;1.73;;;0.70;;
52404;SDS011;38330;53.066;7.080;2022-09-13T15:45:12;3.28;;;0.93;;
52404;SDS011;38330;53.066;7.080;2022-09-13T15:47:38;3.55;;;0.88;;
52404;SDS011;38330;53.066;7.080;2022-09-13T15:50:04;3.17;;;0.73;;
52404;SDS011;38330;53.066;7.080;2022-09-13T15:52:30;2.30;;;0.50;;
52404;SDS011;38330;53.066;7.080;2022-09-13T15:54:56;3.60;;;1.00;;
52404;SDS011;38330;53.066;7.080;2022-09-13T15:57:25;3.58;;;0.75;;
52404;SDS011;38330;53.066;7.080;2022-09-13T15:59:53;5.30;;;0.90;;
52404;SDS011;38330;53.066;7.080;2022-09-13T16:02:25;3.45;;;0.60;;
52404;SDS011;38330;53.066;7.080;2022-09-13T16:04:52;4.13;;;0.77;;
52404;SDS011;38330;53.066;7.080;2022-09-13T16:07:19;4.60;;;0.63;;
52404;SDS011;38330;53.066;7.080;2022-09-13T16:09:47;4.38;;;1.33;;
52404;SDS011;38330;53.066;7.080;2022-09-13T16:12:13;2.95;;;0.88;;
52404;SDS011;38330;53.066;7.080;2022-09-13T16:14:40;4.25;;;0.80;;
52404;SDS011;38330;53.066;7.080;2022-09-13T16:17:10;6.25;;;0.82;;
52404;SDS011;38330;53.066;7.080;2022-09-13T16:19:39;3.65;;;0.90;;
52404;SDS011;38330;53.066;7.080;2022-09-13T16:22:05;5.40;;;0.98;;
52404;SDS011;38330;53.066;7.080;2022-09-13T16:24:31;3.20;;;0.70;;
52404;SDS011;38330;53.066;7.080;2022-09-13T16:26:58;2.38;;;0.63;;
52404;SDS011;38330;53.066;7.080;2022-09-13T16:29:25;2.88;;;0.55;;
52404;SDS011;38330;53.066;7.080;2022-09-13T16:31:51;3.22;;;0.88;;
52404;SDS011;38330;53.066;7.080;2022-09-13T16:34:16;2.95;;;0.70;;
52404;SDS011;38330;53.066;7.080;2022-09-13T16:36:42;7.68;;;0.88;;
52404;SDS011;38330;53.066;7.080;2022-09-13T16:39:08;4.82;;;0.88;;
52404;SDS011;38330;53.066;7.080;2022-09-13T16:41:33;3.55;;;0.70;;
52404;SDS011;38330;53.066;7.080;2022-09-13T16:43:59;3.28;;;0.63;;
52404;SDS011;38330;53.066;7.080;2022-09-13T16:46:26;3.80;;;0.80;;
52404;SDS011;38330;53.066;7.080;2022-09-13T16:48:53;3.00;;;0.80;;
52404;SDS011;38330;53.066;7.080;2022-09-13T16:51:20;5.25;;;0.98;;
52404;SDS011;38330;53.066;7.080;2022-09-13T16:53:47;3.97;;;1.10;;
52404;SDS011;38330;53.066;7.080;2022-09-13T16:56:15;6.13;;;1.17;;
52404;SDS011;38330;53.066;7.080;2022-09-13T16:58:43;5.90;;;1.20;;
52404;SDS011;38330;53.066;7.080;2022-09-13T17:01:11;4.43;;;1.10;;
52404;SDS011;38330;53.066;7.080;2022-09-13T17:03:39;6.95;;;1.35;;
52404;SDS011;38330;53.066;7.080;2022-09-13T17:06:06;5.55;;;1.10;;
52404;SDS011;38330;53.066;7.080;2022-09-13T17:08:35;5.55;;;1.00;;
52404;SDS011;38330;53.066;7.080;2022-09-13T17:11:05;4.07;;;1.00;;
52404;SDS011;38330;53.066;7.080;2022-09-13T17:13:34;3.78;;;1.40;;
52404;SDS011;38330;53.066;7.080;2022-09-13T17:16:01;4.00;;;1.25;;
52404;SDS011;38330;53.066;7.080;2022-09-13T17:18:26;4.38;;;1.25;;
52404;SDS011;38330;53.066;7.080;2022-09-13T17:20:52;3.40;;;0.68;;
52404;SDS011;38330;53.066;7.080;2022-09-13T17:23:18;5.90;;;1.38;;
52404;SDS011;38330;53.066;7.080;2022-09-13T17:25:47;3.58;;;1.02;;
52404;SDS011;38330;53.066;7.080;2022-09-13T17:28:13;3.97;;;0.88;;
52404;SDS011;38330;53.066;7.080;2022-09-13T17:30:40;3.00;;;0.98;;
52404;SDS011;38330;53.066;7.080;2022-09-13T17:33:07;4.88;;;1.25;;
52404;SDS011;38330;53.066;7.080;2022-09-13T17:35:33;3.88;;;0.93;;
52404;SDS011;38330;53.066;7.080;2022-09-13T17:38:00;3.13;;;0.70;;
52404;SDS011;38330;53.066;7.080;2022-09-13T17:40:27;3.35;;;0.70;;
52404;SDS011;38330;53.066;7.080;2022-09-13T17:42:53;4.68;;;1.10;;
52404;SDS011;38330;53.066;7.080;2022-09-13T17:45:19;2.83;;;0.80;;
52404;SDS011;38330;53.066;7.080;2022-09-13T17:47:46;6.22;;;1.20;;
52404;SDS011;38330;53.066;7.080;2022-09-13T17:50:11;4.70;;;0.93;;
52404;SDS011;38330;53.066;7.080;2022-09-13T17:52:37;2.40;;;0.60;;
52404;SDS011;38330;53.066;7.080;2022-09-13T17:55:03;4.20;;;1.75;;
52404;SDS011;38330;53.066;7.080;2022-09-13T17:57:29;3.55;;;0.60;;
52404;SDS011;38330;53.066;7.080;2022-09-13T17:59:55;5.32;;;0.88;;
52404;SDS011;38330;53.066;7.080;2022-09-13T18:02:21;2.92;;;0.82;;
52404;SDS011;38330;53.066;7.080;2022-09-13T18:04:50;3.88;;;1.00;;
52404;SDS011;38330;53.066;7.080;2022-09-13T18:07:16;3.30;;;0.88;;
52404;SDS011;38330;53.066;7.080;2022-09-13T18:09:42;3.65;;;0.80;;
52404;SDS011;38330;53.066;7.080;2022-09-13T18:12:08;2.78;;;0.70;;
52404;SDS011;38330;53.066;7.080;2022-09-13T18:14:35;4.68;;;0.90;;
52404;SDS011;38330;53.066;7.080;2022-09-13T18:17:01;4.32;;;1.10;;
52404;SDS011;38330;53.066;7.080;2022-09-13T18:19:29;5.35;;;1.35;;
52404;SDS011;38330;53.066;7.080;2022-09-13T18:21:56;3.65;;;1.20;;
52404;SDS011;38330;53.066;7.080;2022-09-13T18:24:22;4.60;;;1.02;;
52404;SDS011;38330;53.066;7.080;2022-09-13T18:26:47;2.03;;;1.00;;
52404;SDS011;38330;53.066;7.080;2022-09-13T18:29:13;7.43;;;1.23;;
52404;SDS011;38330;53.066;7.080;2022-09-13T18:31:39;3.75;;;1.20;;